createdAt,value
2022-09-07T00:00:25.244Z,3.90
2022-09-07T00:02:54.089Z,3.87
2022-09-07T00:05:25.986Z,3.47
2022-09-07T00:07:55.251Z,4.20
2022-09-07T00:10:26.402Z,3.65
2022-09-07T00:12:56.530Z,2.92
2022-09-07T00:15:29.286Z,3.50
2022-09-07T00:17:59.731Z,3.37
2022-09-07T00:20:32.779Z,3.20
2022-09-07T00:23:01.419Z,3.40
2022-09-07T00:25:32.050Z,3.02
2022-09-07T00:28:01.485Z,2.95
2022-09-07T00:30:29.999Z,2.80
2022-09-07T00:32:58.771Z,2.42
2022-09-07T00:35:29.406Z,2.85
2022-09-07T00:37:58.104Z,2.87
2022-09-07T00:40:26.813Z,2.70
2022-09-07T00:42:55.431Z,3.00
2022-09-07T00:45:27.213Z,3.62
2022-09-07T00:48:07.830Z,2.70
2022-09-07T00:50:42.727Z,2.65
2022-09-07T00:53:23.569Z,2.70
2022-09-07T00:55:55.218Z,3.00
2022-09-07T00:58:26.197Z,2.80
2022-09-07T01:00:56.642Z,3.12
2022-09-07T01:03:32.397Z,2.90
2022-09-07T01:06:09.968Z,2.95
2022-09-07T01:08:40.914Z,2.95
2022-09-07T01:11:10.689Z,3.55
2022-09-07T01:13:41.455Z,2.80
2022-09-07T01:16:30.536Z,3.20
2022-09-07T01:19:23.341Z,2.80
2022-09-07T01:22:31.124Z,3.02
2022-09-07T01:25:02.785Z,2.37
2022-09-07T01:27:49.280Z,3.15
2022-09-07T01:30:20.731Z,2.75
2022-09-07T01:33:26.991Z,2.90
2022-09-07T01:36:17.318Z,3.00
2022-09-07T01:38:54.544Z,3.00
2022-09-07T01:41:49.028Z,2.65
2022-09-07T01:44:24.792Z,3.12
2022-09-07T01:47:05.686Z,2.85
2022-09-07T01:49:46.406Z,2.75
2022-09-07T01:52:27.092Z,2.80
2022-09-07T01:55:13.917Z,3.05
2022-09-07T01:57:50.397Z,2.77
2022-09-07T02:00:23.359Z,2.87
2022-09-07T02:03:04.399Z,2.87
2022-09-07T02:05:39.282Z,2.17
2022-09-07T02:08:15.767Z,2.45
2022-09-07T02:11:03.773Z,2.70
2022-09-07T02:13:40.812Z,2.80
2022-09-07T02:20:01.516Z,2.72
2022-09-07T02:22:38.499Z,2.70
2022-09-07T02:28:39.557Z,3.20
2022-09-07T02:31:10.370Z,2.25
2022-09-07T02:33:39.462Z,2.80
2022-09-07T02:36:14.372Z,2.40
2022-09-07T02:38:48.049Z,2.83
2022-09-07T02:41:42.574Z,2.22
2022-09-07T02:44:20.435Z,2.37
2022-09-07T02:47:11.676Z,2.42
2022-09-07T02:49:58.075Z,2.27
2022-09-07T02:53:07.882Z,2.45
2022-09-07T02:56:12.603Z,2.75
2022-09-07T02:58:59.517Z,2.47
2022-09-07T03:01:40.267Z,2.92
2022-09-07T03:04:32.302Z,2.60
2022-09-07T03:07:34.520Z,2.90
2022-09-07T03:10:07.898Z,2.55
2022-09-07T03:12:45.591Z,2.52
2022-09-07T03:15:20.728Z,2.72
2022-09-07T03:17:49.783Z,2.45
2022-09-07T03:20:24.264Z,3.00
2022-09-07T03:22:54.725Z,2.15
2022-09-07T03:25:23.736Z,2.90
2022-09-07T03:27:52.978Z,2.50
2022-09-07T03:30:23.655Z,2.83
2022-09-07T03:32:53.048Z,3.05
2022-09-07T03:35:23.605Z,2.70
2022-09-07T03:37:52.765Z,2.65
2022-09-07T03:40:21.607Z,2.72
2022-09-07T03:42:52.578Z,2.92
2022-09-07T03:45:26.008Z,3.02
2022-09-07T03:47:58.342Z,3.12
2022-09-07T03:50:27.103Z,3.60
2022-09-07T03:52:59.645Z,3.02
2022-09-07T03:55:38.986Z,2.85
2022-09-07T03:58:07.928Z,3.30
2022-09-07T04:00:41.638Z,3.17
2022-09-07T04:03:13.472Z,3.42
2022-09-07T04:05:48.620Z,3.27
2022-09-07T04:08:18.632Z,3.70
2022-09-07T04:10:48.729Z,3.25
2022-09-07T04:13:20.401Z,3.00
2022-09-07T04:15:53.357Z,3.00
2022-09-07T04:18:23.467Z,3.05
2022-09-07T04:20:56.152Z,3.02
2022-09-07T04:23:27.527Z,2.98
2022-09-07T04:25:58.151Z,2.85
2022-09-07T04:28:28.740Z,2.77
2022-09-07T04:31:08.507Z,2.70
2022-09-07T04:33:38.028Z,2.55
2022-09-07T04:36:07.554Z,2.95
2022-09-07T04:38:36.571Z,2.83
2022-09-07T04:41:10.961Z,2.87
2022-09-07T04:43:47.855Z,3.25
2022-09-07T04:46:38.795Z,2.60
2022-09-07T04:49:10.890Z,2.65
2022-09-07T04:51:47.276Z,2.72
2022-09-07T04:57:20.999Z,3.10
2022-09-07T04:59:50.491Z,3.25
2022-09-07T05:02:31.434Z,2.42
2022-09-07T05:05:02.904Z,2.83
2022-09-07T05:07:31.979Z,2.60
2022-09-07T05:10:03.705Z,2.92
2022-09-07T05:12:33.593Z,2.67
2022-09-07T05:15:08.872Z,2.92
2022-09-07T05:17:37.244Z,2.50
2022-09-07T05:20:09.346Z,2.50
2022-09-07T05:22:39.892Z,3.12
2022-09-07T05:25:31.818Z,3.20
2022-09-07T05:27:59.585Z,2.60
2022-09-07T05:36:41.769Z,2.60
2022-09-07T05:39:32.720Z,2.40
2022-09-07T05:42:05.960Z,2.30
2022-09-07T05:44:45.114Z,2.47
2022-09-07T05:47:09.465Z,2.75
2022-09-07T05:49:38.440Z,2.72
2022-09-07T05:52:11.927Z,2.00
2022-09-07T05:54:49.940Z,2.90
2022-09-07T05:57:23.533Z,3.20
2022-09-07T05:59:57.441Z,2.50
2022-09-07T06:02:39.690Z,2.52
2022-09-07T06:05:07.255Z,2.70
2022-09-07T06:07:41.191Z,2.22
2022-09-07T06:12:49.218Z,2.17
2022-09-07T06:15:18.080Z,2.70
2022-09-07T06:18:05.013Z,2.40
2022-09-07T06:20:35.401Z,2.30
2022-09-07T06:23:08.892Z,2.80
2022-09-07T06:25:39.447Z,2.72
2022-09-07T06:28:08.456Z,2.62
2022-09-07T06:30:37.363Z,2.52
2022-09-07T06:33:10.561Z,2.62
2022-09-07T06:36:01.346Z,2.80
2022-09-07T06:44:17.261Z,2.87
2022-09-07T06:47:03.287Z,2.65
2022-09-07T06:49:27.137Z,2.40
2022-09-07T06:51:56.331Z,2.10
2022-09-07T06:57:00.672Z,2.10
2022-09-07T06:59:29.541Z,2.00
2022-09-07T07:02:02.544Z,2.02
2022-09-07T07:07:31.308Z,2.45
2022-09-07T07:10:08.472Z,2.50
2022-09-07T07:15:40.655Z,1.98
2022-09-07T07:18:21.569Z,2.00
2022-09-07T07:20:52.179Z,2.20
2022-09-07T07:23:21.045Z,1.90
2022-09-07T07:25:49.673Z,2.40
2022-09-07T07:30:48.940Z,2.10
2022-09-07T07:33:17.672Z,1.75
2022-09-07T07:35:49.513Z,2.08
2022-09-07T07:43:29.512Z,1.95
2022-09-07T07:46:01.224Z,2.17
2022-09-07T07:48:31.831Z,2.33
2022-09-07T07:51:16.182Z,2.10
2022-09-07T07:53:47.864Z,2.12
2022-09-07T07:56:17.534Z,2.27
2022-09-07T07:58:48.433Z,2.40
2022-09-07T08:01:29.777Z,2.25
2022-09-07T08:04:04.630Z,2.00
2022-09-07T08:06:35.262Z,2.20
2022-09-07T08:09:08.766Z,2.30
2022-09-07T08:11:43.010Z,2.65
2022-09-07T08:17:16.067Z,2.50
2022-09-07T08:20:09.423Z,2.50
2022-09-07T08:22:45.332Z,2.72
2022-09-07T08:25:21.732Z,2.47
2022-09-07T08:27:58.062Z,2.60
2022-09-07T08:33:52.040Z,2.15
2022-09-07T08:36:32.431Z,2.70
2022-09-07T08:39:03.158Z,2.47
2022-09-07T09:00:50.257Z,2.37
2022-09-07T09:10:33.786Z,2.15
2022-09-07T09:13:38.683Z,2.90
2022-09-07T09:16:32.116Z,3.05
2022-09-07T09:19:16.070Z,2.52
2022-09-07T09:22:26.295Z,2.58
2022-09-07T09:24:58.033Z,3.00
2022-09-07T09:27:26.883Z,2.55
2022-09-07T09:33:19.550Z,3.35
2022-09-07T10:20:49.854Z,3.05
2022-09-07T10:22:42.272Z,2.72
2022-09-07T10:31:37.284Z,2.58
2022-09-07T10:34:37.313Z,2.67
2022-09-07T10:37:13.271Z,2.72
2022-09-07T10:40:00.248Z,2.75
2022-09-07T10:43:20.468Z,3.02
2022-09-07T10:45:22.509Z,2.90
2022-09-07T10:48:09.167Z,2.72
2022-09-07T10:50:43.613Z,2.52
2022-09-07T10:53:39.511Z,2.85
2022-09-07T10:55:49.208Z,2.50
2022-09-07T11:01:32.902Z,2.70
2022-09-07T11:04:22.481Z,2.35
2022-09-07T11:06:56.842Z,3.22
2022-09-07T11:10:00.565Z,3.08
2022-09-07T11:12:32.411Z,2.55
2022-09-07T11:15:24.146Z,2.87
2022-09-07T11:18:20.400Z,3.15
2022-09-07T11:21:02.846Z,3.20
2022-09-07T11:26:54.400Z,3.02
2022-09-07T11:29:52.379Z,2.65
2022-09-07T11:32:33.658Z,3.20
2022-09-07T11:35:08.445Z,3.10
2022-09-07T11:38:03.067Z,2.85
2022-09-07T11:50:59.623Z,3.35
2022-09-07T12:00:26.401Z,3.45
2022-09-07T12:07:06.239Z,3.22
2022-09-07T12:09:56.715Z,2.80
2022-09-07T12:12:49.420Z,2.70
2022-09-07T12:52:26.134Z,3.05
2022-09-07T12:55:26.612Z,2.50
2022-09-07T12:57:58.574Z,2.45
2022-09-07T13:01:05.535Z,2.65
2022-09-07T13:04:00.443Z,2.62
2022-09-07T13:07:07.856Z,2.60
2022-09-07T13:09:41.946Z,2.67
2022-09-07T13:12:57.365Z,2.70
2022-09-07T13:21:38.268Z,2.52
2022-09-07T13:22:16.563Z,2.58
2022-09-07T13:24:46.072Z,2.77
2022-09-07T13:30:49.439Z,2.90
2022-09-07T13:33:34.162Z,2.37
2022-09-07T13:36:07.313Z,2.72
2022-09-07T13:38:39.503Z,2.90
2022-09-07T13:41:20.100Z,2.60
2022-09-07T13:43:51.009Z,2.77
2022-09-07T13:46:42.725Z,2.67
2022-09-07T13:49:24.502Z,2.40
2022-09-07T13:52:07.877Z,2.67
2022-09-07T13:54:55.140Z,2.98
2022-09-07T13:57:29.300Z,2.92
2022-09-07T13:59:58.601Z,2.70
2022-09-07T14:02:30.948Z,2.62
2022-09-07T14:05:00.979Z,2.37
2022-09-07T14:07:31.986Z,2.70
2022-09-07T14:10:09.655Z,2.75
2022-09-07T14:12:53.086Z,2.52
2022-09-07T14:15:36.490Z,2.52
2022-09-07T14:18:08.683Z,2.75
2022-09-07T14:20:42.964Z,2.83
2022-09-07T14:23:32.757Z,2.60
2022-09-07T14:26:18.501Z,2.98
2022-09-07T14:28:44.177Z,2.30
2022-09-07T14:31:18.813Z,2.50
2022-09-07T14:33:59.141Z,4.55
2022-09-07T14:36:44.879Z,5.37
2022-09-07T14:39:09.148Z,4.15
2022-09-07T14:41:43.497Z,6.03
2022-09-07T14:44:30.570Z,2.22
2022-09-07T14:47:04.417Z,2.00
2022-09-07T14:49:36.330Z,2.58
2022-09-07T14:52:05.953Z,3.37
2022-09-07T14:54:36.891Z,3.15
2022-09-07T14:57:15.611Z,3.02
2022-09-07T14:59:50.346Z,2.37
2022-09-07T15:02:44.637Z,2.08
2022-09-07T15:05:23.609Z,2.55
2022-09-07T15:08:03.029Z,2.60
2022-09-07T15:10:41.263Z,2.25
2022-09-07T15:13:30.290Z,2.08
2022-09-07T15:16:08.560Z,2.50
2022-09-07T15:19:26.988Z,2.70
2022-09-07T15:21:56.691Z,2.27
2022-09-07T15:24:25.708Z,2.42
2022-09-07T15:27:02.326Z,2.42
2022-09-07T15:29:32.147Z,2.77
2022-09-07T15:32:08.944Z,2.45
2022-09-07T15:34:40.500Z,2.30
2022-09-07T15:39:43.670Z,2.33
2022-09-07T15:44:52.308Z,2.40
2022-09-07T15:49:53.958Z,2.42
2022-09-07T15:52:22.510Z,2.25
2022-09-07T15:54:52.687Z,2.20
2022-09-07T15:59:51.897Z,2.70
2022-09-07T16:04:52.127Z,2.90
2022-09-07T16:07:22.146Z,2.62
2022-09-07T16:09:53.155Z,2.75
2022-09-07T16:14:56.341Z,3.17
2022-09-07T16:17:27.183Z,3.15
2022-09-07T16:25:14.394Z,3.45
2022-09-07T16:27:46.745Z,3.08
2022-09-07T16:30:15.394Z,3.30
2022-09-07T16:32:53.455Z,4.00
2022-09-07T16:35:38.905Z,3.77
2022-09-07T16:40:45.256Z,3.08
2022-09-07T16:43:30.977Z,3.50
2022-09-07T16:46:07.820Z,3.60
2022-09-07T16:48:24.199Z,3.70
2022-09-07T16:51:03.591Z,3.37
2022-09-07T16:53:47.976Z,3.85
2022-09-07T16:56:13.861Z,3.55
2022-09-07T16:58:45.546Z,5.25
2022-09-07T17:01:17.356Z,3.90
2022-09-07T17:03:49.734Z,3.70
2022-09-07T17:06:21.951Z,3.67
2022-09-07T17:08:50.675Z,3.80
2022-09-07T17:11:22.492Z,4.35
2022-09-07T17:20:30.869Z,4.87
2022-09-07T17:23:02.605Z,3.70
2022-09-07T17:25:33.259Z,3.45
2022-09-07T17:28:02.032Z,3.62
2022-09-07T17:30:30.554Z,4.92
2022-09-07T17:32:59.162Z,3.33
2022-09-07T17:35:44.555Z,3.70
2022-09-07T17:40:43.750Z,3.58
2022-09-07T17:45:57.302Z,3.80
2022-09-07T17:48:26.522Z,4.37
2022-09-07T17:51:10.659Z,3.52
2022-09-07T17:53:45.253Z,3.87
2022-09-07T17:56:15.841Z,3.60
2022-09-07T17:58:46.003Z,3.58
2022-09-07T18:04:08.684Z,4.28
2022-09-07T18:06:37.856Z,4.20
2022-09-07T18:09:10.732Z,3.60
2022-09-07T18:11:46.726Z,3.90
2022-09-07T18:14:17.878Z,3.65
2022-09-07T18:16:49.416Z,4.20
2022-09-07T18:19:20.874Z,3.60
2022-09-07T18:21:54.990Z,3.67
2022-09-07T18:24:28.836Z,3.52
2022-09-07T18:27:10.942Z,3.50
2022-09-07T18:29:40.322Z,4.72
2022-09-07T18:32:13.483Z,4.12
2022-09-07T18:34:41.482Z,3.90
2022-09-07T18:37:12.558Z,3.50
2022-09-07T18:40:09.615Z,4.17
2022-09-07T18:42:43.955Z,3.15
2022-09-07T18:45:34.328Z,3.72
2022-09-07T18:47:54.986Z,3.40
2022-09-07T18:50:24.939Z,3.60
2022-09-07T18:52:53.910Z,3.20
2022-09-07T18:55:24.290Z,3.22
2022-09-07T18:57:55.935Z,3.55
2022-09-07T19:00:25.606Z,3.40
2022-09-07T19:02:54.343Z,3.90
2022-09-07T19:07:53.810Z,3.70
2022-09-07T19:10:23.387Z,3.77
2022-09-07T19:12:52.399Z,3.27
2022-09-07T19:15:24.260Z,3.50
2022-09-07T19:17:54.730Z,3.55
2022-09-07T19:20:25.207Z,3.25
2022-09-07T19:22:53.946Z,4.03
2022-09-07T19:25:23.370Z,3.37
2022-09-07T19:27:52.145Z,3.35
2022-09-07T19:30:24.211Z,2.98
2022-09-07T19:32:54.054Z,3.75
2022-09-07T19:35:22.850Z,2.95
2022-09-07T19:37:57.840Z,2.92
2022-09-07T19:40:26.987Z,3.67
2022-09-07T19:42:58.008Z,3.40
2022-09-07T19:45:28.355Z,3.55
2022-09-07T19:48:07.123Z,3.00
2022-09-07T19:50:41.752Z,2.75
2022-09-07T19:53:10.853Z,3.33
2022-09-07T19:55:41.555Z,3.12
2022-09-07T19:58:12.184Z,3.25
2022-09-07T20:00:41.969Z,3.47
2022-09-07T20:03:13.657Z,3.70
2022-09-07T20:05:43.711Z,4.12
2022-09-07T20:08:15.243Z,3.65
2022-09-07T20:10:45.433Z,3.58
2022-09-07T20:13:14.392Z,3.65
2022-09-07T20:15:55.006Z,3.33
2022-09-07T20:21:49.397Z,3.20
2022-09-07T20:27:58.231Z,2.70
2022-09-07T20:34:51.253Z,3.08
2022-09-07T20:52:44.552Z,3.17
2022-09-07T20:55:16.421Z,3.25
2022-09-07T20:57:46.830Z,2.92
2022-09-07T21:00:16.010Z,3.20
2022-09-07T21:02:44.979Z,3.37
2022-09-07T21:05:33.014Z,2.72
2022-09-07T21:08:00.989Z,3.15
2022-09-07T21:13:25.950Z,2.90
2022-09-07T21:16:03.114Z,3.27
2022-09-07T21:18:58.267Z,3.08
2022-09-07T21:21:37.817Z,3.25
2022-09-07T21:24:07.926Z,2.83
2022-09-07T21:26:41.534Z,3.35
2022-09-07T21:29:19.377Z,2.70
2022-09-07T21:31:59.057Z,2.65
2022-09-07T21:38:13.806Z,3.05
2022-09-07T21:40:43.958Z,2.92
2022-09-07T21:43:14.288Z,2.95
2022-09-07T21:46:08.208Z,3.45
2022-09-07T21:48:38.939Z,2.92
2022-09-07T21:51:09.432Z,3.83
2022-09-07T21:53:42.003Z,3.45
2022-09-07T21:56:18.181Z,3.67
2022-09-07T21:58:50.853Z,3.45
2022-09-07T22:01:24.233Z,2.80
2022-09-07T22:03:59.426Z,3.27
2022-09-07T22:06:48.951Z,2.80
2022-09-07T22:09:22.086Z,2.75
2022-09-07T22:11:58.312Z,3.20
2022-09-07T22:14:38.322Z,3.65
2022-09-07T22:17:19.314Z,3.40
2022-09-07T22:19:51.610Z,3.72
2022-09-07T22:22:27.092Z,3.15
2022-09-07T22:28:06.742Z,3.35
2022-09-07T22:30:48.607Z,3.45
2022-09-07T22:33:25.513Z,3.47
2022-09-07T22:36:02.424Z,3.67
2022-09-07T22:38:41.893Z,3.45
2022-09-07T22:41:18.910Z,3.35
2022-09-07T22:47:11.696Z,3.70
2022-09-07T22:49:59.693Z,3.90
2022-09-07T22:55:26.701Z,3.83
2022-09-07T22:58:05.760Z,3.90
2022-09-07T23:00:39.794Z,3.60
2022-09-07T23:06:24.202Z,3.83
2022-09-07T23:09:27.443Z,4.55
2022-09-07T23:11:56.285Z,4.03
2022-09-07T23:14:25.297Z,3.80
2022-09-07T23:16:58.605Z,4.35
2022-09-07T23:19:27.765Z,3.35
2022-09-07T23:21:56.582Z,4.17
2022-09-07T23:24:26.903Z,4.30
2022-09-07T23:27:05.091Z,3.87
2022-09-07T23:29:37.627Z,3.17
2022-09-07T23:32:11.041Z,3.77
2022-09-07T23:34:40.070Z,4.00
2022-09-07T23:37:08.885Z,4.20
2022-09-07T23:39:37.822Z,3.58
2022-09-07T23:42:08.776Z,4.00
2022-09-07T23:44:40.269Z,4.15
2022-09-07T23:47:09.331Z,3.77
2022-09-07T23:49:42.234Z,4.30
2022-09-07T23:52:10.886Z,3.80
2022-09-07T23:54:39.941Z,3.58
2022-09-07T23:57:09.726Z,3.72
2022-09-07T23:59:38.404Z,4.20
